Nearby METAR Reports

 

KISP - Islip, New York, USA
Distance from station: SW 4mi, 6km
Updated: Sat, 09/25/2021 6:56 am EDT
Few Clouds
Few Clouds
 Wind from calm
Wind: Calm
Temperature: 55°F , 13°C
Dew Point: 55°F , 13°C
Humidity: 100%
Barometer: 30.05 inHg , 1017.6 hPa
Clouds: Few Clouds
Visibility: 10 miles , 16 km
Cloud details: Few Clouds 9000 ft
Few Clouds 25000 ft
2021/09/25 10:56 KISP 251056Z 00000KT 10SM FEW090 FEW250 13/13 A3005 RMK AO2 SLP174 T01280128
KHWV - Shirley, New York, USA
Distance from station: E 10mi, 16km
Updated: Sat, 09/25/2021 6:56 am EDT
Clear
Clear
 Wind from calm
Wind: Calm
Temperature: 55°F , 13°C
Dew Point: 52°F , 11°C
Humidity: 88%
Barometer: 30.05 inHg , 1017.6 hPa
Clouds: Clear
Visibility: 10 miles , 16 km
2021/09/25 10:56 KHWV 251056Z AUTO 00000KT 10SM CLR 13/11 A3005 RMK AO2 SLP176 T01330111
 
KFRG - Farmingdale, New York, USA
Distance from station: WSW 20mi, 33km
Updated: Sat, 09/25/2021 6:53 am EDT
Clear
Clear
 Wind from N
Wind: N 3 mph , 6 km/h
Temperature: 57°F , 14°C
Dew Point: 54°F , 12°C
Humidity: 88%
Barometer: 30.06 inHg , 1017.9 hPa
Clouds: Clear
Visibility: 10 miles , 16 km
2021/09/25 10:53 KFRG 251053Z 36003KT 10SM CLR 14/12 A3006 RMK AO2 SLP178 T01390117
KBDR - Bridgeport, Connecticut, USA
Distance from station: N 23mi, 37km
Updated: Sat, 09/25/2021 6:52 am EDT
Clear
Clear
 Wind from N
Wind: N 6 mph , 9 km/h
Temperature: 55°F , 13°C
Dew Point: 52°F , 11°C
Humidity: 88%
Barometer: 30.06 inHg , 1017.9 hPa
Clouds: Clear
Visibility: 10 miles , 16 km
2021/09/25 10:52 KBDR 251052Z 01005KT 10SM CLR 13/11 A3006 RMK AO2 SLP178 T01330111
 
KFOK - Westhampton Beac, New York, USA
Distance from station: E 23mi, 37km
Updated: Sat, 09/25/2021 6:53 am EDT
Clear
Clear
 Wind from NNW
Wind: NNW 3 mph , 6 km/h
Temperature: 52°F , 11°C
Dew Point: 52°F , 11°C
Humidity: 100%
Barometer: 30.06 inHg , 1017.9 hPa
Clouds: Clear
Visibility: 10 miles , 16 km
2021/09/25 10:53 KFOK 251053Z 33003KT 10SM CLR 11/11 A3006 RMK AO2 SLP178 T01110106
KHVN - New Haven/Tweed, Connecticut, USA
Distance from station: NNE 31mi, 50km
Updated: Sat, 09/25/2021 6:53 am EDT
Clear
Clear
 Wind from N
Wind: N 5 mph , 7 km/h
Temperature: 55°F , 13°C
Dew Point: 54°F , 12°C
Humidity: 94%
Barometer: 30.06 inHg , 1017.9 hPa
Clouds: Clear
Visibility: 10 miles , 16 km
2021/09/25 10:53 KHVN 251053Z 36004KT 10SM CLR 13/12 A3006 RMK AO2 SLP177 T01330122
 
KHPN - White Plains, New York, USA
Distance from station: WNW 37mi, 60km
Updated: Sat, 09/25/2021 6:56 am EDT
Clear
Clear
 Wind from WNW
Wind: WNW 7 mph , 11 km/h
Temperature: 54°F , 12°C
Dew Point: 50°F , 10°C
Humidity: 88%
Barometer: 30.06 inHg , 1017.9 hPa
Clouds: Clear
Visibility: 10 miles , 16 km
2021/09/25 10:56 KHPN 251056Z 30006KT 10SM CLR 12/10 A3006 RMK AO2 SLP180 T01220100
KJFK - Nyc/Jfk Arpt, New York, USA
Distance from station: WSW 40mi, 64km
Updated: Sat, 09/25/2021 6:51 am EDT
Few Clouds
Few Clouds
 Wind from NNW
Wind: NNW 5 mph , 7 km/h
Temperature: 57°F , 14°C
Dew Point: 54°F , 12°C
Humidity: 88%
Barometer: 30.07 inHg , 1018.3 hPa
Clouds: Few Clouds
Visibility: 10 miles , 16 km
Cloud details: Few Clouds 3500 ft
Few Clouds 9000 ft
Few Clouds 25000 ft
2021/09/25 10:51 KJFK 251051Z 33004KT 10SM FEW035 FEW090 FEW250 14/12 A3007 RMK AO2 SLP181 T01440122 $
 
KDXR - Danbury, Connecticut, USA
Distance from station: NNW 42mi, 68km
Updated: Sat, 09/25/2021 6:53 am EDT
Fog, Overcast
Fog, Overcast
 Wind from calm
Wind: Calm
Temperature: 52°F , 11°C
Dew Point: 48°F , 9°C
Humidity: 88%
Barometer: 30.09 inHg , 1019 hPa
Summary: Fog
Clouds: Overcast
Visibility: 1/4 mile , 0.4 km
Cloud details: Overcast 200 ft
2021/09/25 10:53 KDXR 251053Z 00000KT 1/4SM FG VV002 11/09 A3009 RMK AO2 SLP188 T01060094
KHTO - East Hampton, New York, USA
Distance from station: E 43mi, 69km
Updated: Sat, 09/25/2021 7:15 am EDT
Mostly cloudy
Mostly cloudy
 Wind from calm
Wind: Calm
Temperature: 61°F , 16°C
Dew Point: 59°F , 15°C
Humidity: 94%
Barometer: 30.04 inHg , 1017.3 hPa
Clouds: Mostly cloudy
Visibility: 10 miles , 16 km
Cloud details: Mostly cloudy 4400 ft
Mostly cloudy 7000 ft
2021/09/25 11:15 KHTO 251115Z AUTO 00000KT 10SM BKN044 BKN070 16/15 A3004 RMK AO2 T01550150
 
KOXC - Oxford/Waterbury, Connecticut, USA
Distance from station: N 43mi, 70km
Updated: Sat, 09/25/2021 6:51 am EDT
Clear
Clear
 Wind from calm
Wind: Calm
Temperature: 48°F , 9°C
Dew Point: 48°F , 9°C
Humidity: 100%
Barometer: 30.08 inHg , 1018.6 hPa
Clouds: Clear
Visibility: 10 miles , 16 km
2021/09/25 10:51 KOXC 251051Z 00000KT 10SM CLR 09/09 A3008 RMK AO2 SLP197 T00940094
KLGA - Nyc/La Guardia, New York, USA
Distance from station: W 44mi, 70km
Updated: Sat, 09/25/2021 6:51 am EDT
Few Clouds
Few Clouds
 Wind from NNE
Wind: NNE 6 mph , 9 km/h
Temperature: 63°F , 17°C
Dew Point: 54°F , 12°C
Humidity: 73%
Barometer: 30.06 inHg , 1017.9 hPa
Clouds: Few Clouds
Visibility: 10 miles , 16 km
Cloud details: Few Clouds 5000 ft
2021/09/25 10:51 KLGA 251051Z 02005KT 10SM FEW050 17/12 A3006 RMK AO2 SLP177 T01720117 $
 
KSNC - Chester, Connecticut, USA
Distance from station: NE 47mi, 76km
Updated: Sat, 09/25/2021 7:15 am EDT
Clear
Clear
 Wind from NNW
Wind: NNW 3 mph , 6 km/h
Temperature: 54°F , 12°C
Dew Point: 54°F , 12°C
Humidity: 100%
Barometer: 30.07 inHg , 1018.3 hPa
Clouds: Clear
Visibility: 10 miles , 16 km
2021/09/25 11:15 KSNC 251115Z AUTO 34003KT 10SM CLR 12/12 A3007 RMK AO2
KMMK - Meriden, Connecticut, USA
Distance from station: NNE 48mi, 77km
Updated: Sat, 09/25/2021 7:01 am EDT
Few Clouds
Few Clouds
 Wind from calm
Wind: Calm
Temperature: 52°F , 11°C
Dew Point: 48°F , 9°C
Humidity: 88%
Barometer: 30.07 inHg , 1018.3 hPa
Clouds: Few Clouds
Visibility: 10 miles , 16 km
Cloud details: Few Clouds 200 ft
2021/09/25 11:01 KMMK 251101Z AUTO 00000KT 10SM FEW002 11/09 A3007 RMK AO2 T01110094
 
KNYC - Nyc/Central Park, New York, USA
Distance from station: W 48mi, 77km
Updated: Sat, 09/25/2021 6:51 am EDT
Clear
Clear
 Wind from calm
Wind: Calm
Temperature: 59°F , 15°C
Dew Point: 52°F , 11°C
Humidity: 77%
Barometer: 30.09 inHg , 1019 hPa
Clouds: Clear
Visibility: 10 miles , 16 km
2021/09/25 10:51 KNYC 251051Z AUTO 00000KT 10SM CLR 15/11 A3009 RMK AO2 SLP179 T01500111 $